Terminal Aerodrome Forecast
Issued by NWS Columbia, SC

Current Version | Previous Version | Text Only | Print | Product List | Glossary On
Versions: 1 2 3 4 5 6 7 8 9 10 11 12 13 14 15 16 17 18 19 20 21 22 23 24 25 26 27 28 29 30 31 32
697
FTUS42 KCAE 221519 AAA
TAFCAE
TAF AMD
KCAE 221519Z 2215/2312 16008KT P6SM SCT008 OVC150
      TEMPO 2215/2217 BKN006
     FM222000 12010KT P6SM VCSH SCT015 BKN035
     FM222200 20012G20KT 5SM TSRA BR SCT015 BKN035CB
     FM230200 23013G25KT 4SM SHRA BR OVC025
     FM230800 24007KT P6SM SCT050 BKN250=

USA.gov is the U.S. government's official web portal to all federal, state and local government web resources and services.